createdAt,value
2018-12-29T00:03:14.935Z,97.87
2018-12-29T00:07:20.033Z,102.70
2018-12-29T00:11:25.492Z,98.20
2018-12-29T00:15:30.663Z,91.50
2018-12-29T00:19:35.869Z,87.47
2018-12-29T00:23:40.842Z,87.40
2018-12-29T00:27:45.887Z,89.33
2018-12-29T00:31:51.413Z,92.67
2018-12-29T00:35:56.542Z,87.10
2018-12-29T00:40:01.462Z,88.90
2018-12-29T00:44:06.561Z,91.57
2018-12-29T00:48:11.670Z,86.17
2018-12-29T00:52:16.728Z,82.90
2018-12-29T00:56:21.721Z,88.47
2018-12-29T01:00:26.736Z,87.00
2018-12-29T01:04:31.808Z,87.87
2018-12-29T01:08:37.213Z,74.93
2018-12-29T01:12:42.274Z,87.90
2018-12-29T01:16:47.401Z,78.53
2018-12-29T01:20:52.430Z,79.33
2018-12-29T01:24:57.577Z,80.73
2018-12-29T01:29:02.749Z,77.90
2018-12-29T01:33:07.797Z,78.40
2018-12-29T01:37:12.932Z,76.73
2018-12-29T01:41:18.033Z,77.53
2018-12-29T01:45:23.121Z,80.40
2018-12-29T01:49:28.221Z,76.10
2018-12-29T01:53:33.550Z,71.60
2018-12-29T01:57:57.545Z,73.87
2018-12-29T02:02:02.725Z,71.43
2018-12-29T02:06:07.627Z,78.67
2018-12-29T02:10:12.650Z,74.53
2018-12-29T02:14:17.802Z,73.53
2018-12-29T02:18:22.898Z,78.10
2018-12-29T02:22:28.019Z,68.43
2018-12-29T02:26:33.064Z,68.57
2018-12-29T02:30:38.230Z,74.20
2018-12-29T02:34:43.249Z,76.07
2018-12-29T02:38:48.406Z,84.70
2018-12-29T02:42:53.501Z,75.27
2018-12-29T02:46:58.603Z,82.73
2018-12-29T02:51:03.693Z,75.73
2018-12-29T02:55:08.758Z,85.93
2018-12-29T02:59:13.861Z,87.33
2018-12-29T03:03:18.913Z,85.37
2018-12-29T03:07:23.986Z,90.60
2018-12-29T03:11:29.060Z,101.30
2018-12-29T03:15:40.900Z,104.83
2018-12-29T03:19:46.016Z,104.27
2018-12-29T03:23:51.077Z,98.93
2018-12-29T03:27:56.164Z,117.20
2018-12-29T03:32:01.248Z,105.07
2018-12-29T03:36:06.276Z,127.73
2018-12-29T03:40:11.427Z,118.83
2018-12-29T03:44:16.519Z,114.53
2018-12-29T03:48:21.577Z,122.37
2018-12-29T03:52:26.632Z,130.43
2018-12-29T03:56:31.662Z,118.27
2018-12-29T04:00:37.035Z,129.37
2018-12-29T04:04:42.121Z,108.60
2018-12-29T04:09:25.379Z,121.77
2018-12-29T04:13:30.430Z,138.83
2018-12-29T04:17:35.495Z,137.57
2018-12-29T04:21:40.536Z,133.67
2018-12-29T04:25:45.607Z,132.53
2018-12-29T04:29:50.687Z,123.13
2018-12-29T04:33:55.761Z,132.60
2018-12-29T04:38:00.846Z,148.60
2018-12-29T04:42:05.893Z,143.23
2018-12-29T04:46:11.028Z,153.50
2018-12-29T04:50:16.101Z,128.30
2018-12-29T04:54:21.203Z,143.87
2018-12-29T04:58:26.253Z,142.47
2018-12-29T05:02:31.288Z,121.63
2018-12-29T05:06:36.447Z,131.47
2018-12-29T05:10:41.425Z,146.98
2018-12-29T05:14:46.497Z,135.73
2018-12-29T05:18:51.550Z,129.77
2018-12-29T05:22:56.602Z,130.83
2018-12-29T05:27:01.654Z,152.23
2018-12-29T05:31:06.656Z,136.83
2018-12-29T05:35:11.701Z,165.13
2018-12-29T05:39:17.009Z,131.77
2018-12-29T05:43:22.136Z,144.33
2018-12-29T05:47:27.120Z,131.17
2018-12-29T05:51:32.479Z,130.70
2018-12-29T05:55:37.888Z,128.07
2018-12-29T05:59:42.867Z,131.00
2018-12-29T06:03:47.922Z,146.30
2018-12-29T06:07:53.529Z,144.23
2018-12-29T06:12:00.179Z,125.70
2018-12-29T06:16:05.299Z,158.57
2018-12-29T06:20:10.427Z,153.90
2018-12-29T06:24:15.463Z,113.17
2018-12-29T06:28:20.470Z,133.63
2018-12-29T06:32:26.092Z,124.77
2018-12-29T06:36:31.300Z,134.13
2018-12-29T06:40:36.343Z,127.37
2018-12-29T06:44:41.404Z,131.03
2018-12-29T06:48:46.379Z,143.80
2018-12-29T06:52:51.427Z,134.70
2018-12-29T06:56:56.404Z,125.03
2018-12-29T07:01:01.484Z,124.37
2018-12-29T07:05:06.556Z,123.70
2018-12-29T07:09:11.603Z,119.93
2018-12-29T07:13:18.798Z,128.60
2018-12-29T07:17:24.352Z,141.20
2018-12-29T07:21:29.412Z,121.07
2018-12-29T07:25:34.681Z,120.97
2018-12-29T07:29:39.748Z,124.47
2018-12-29T07:33:44.858Z,110.20
2018-12-29T07:37:49.880Z,132.53
2018-12-29T07:41:54.892Z,133.87
2018-12-29T07:45:59.907Z,118.77
2018-12-29T07:50:05.001Z,141.27
2018-12-29T07:54:10.350Z,112.27
2018-12-29T07:58:15.416Z,116.73
2018-12-29T08:02:20.612Z,119.90
2018-12-29T08:06:25.648Z,103.13
2018-12-29T08:10:30.950Z,106.70
2018-12-29T08:14:35.994Z,106.90
2018-12-29T08:18:40.985Z,108.83
2018-12-29T08:22:46.043Z,112.83
2018-12-29T08:26:51.016Z,102.30
2018-12-29T08:30:56.413Z,111.37
2018-12-29T08:35:01.466Z,96.77
2018-12-29T08:39:07.409Z,99.97
2018-12-29T08:43:12.406Z,103.60
2018-12-29T08:47:17.698Z,97.73
2018-12-29T08:51:22.685Z,105.00
2018-12-29T08:55:27.824Z,90.37
2018-12-29T08:59:32.823Z,97.03
2018-12-29T09:03:37.806Z,95.53
2018-12-29T09:07:42.898Z,90.97
2018-12-29T09:11:48.039Z,89.40
2018-12-29T09:15:53.105Z,88.20
2018-12-29T09:19:58.403Z,94.80
2018-12-29T09:24:03.755Z,84.47
2018-12-29T09:28:08.712Z,94.83
2018-12-29T09:32:13.818Z,91.10
2018-12-29T09:36:18.909Z,93.60
2018-12-29T09:40:23.974Z,89.73
2018-12-29T09:44:29.119Z,86.07
2018-12-29T09:48:34.251Z,90.00
2018-12-29T09:52:39.704Z,84.53
2018-12-29T09:56:44.895Z,79.67
2018-12-29T10:00:50.013Z,82.10
2018-12-29T10:04:55.502Z,81.57
2018-12-29T10:09:00.571Z,89.47
2018-12-29T10:13:05.739Z,75.93
2018-12-29T10:17:10.808Z,79.50
2018-12-29T10:21:15.879Z,77.97
2018-12-29T10:25:20.944Z,78.17
2018-12-29T10:29:26.024Z,80.43
2018-12-29T10:33:31.096Z,74.13
2018-12-29T10:37:36.168Z,70.10
2018-12-29T10:41:41.142Z,71.10
2018-12-29T10:45:46.206Z,77.50
2018-12-29T10:49:51.306Z,67.70
2018-12-29T10:53:56.450Z,76.97
2018-12-29T10:58:01.506Z,73.37
2018-12-29T11:02:06.638Z,70.63
2018-12-29T11:06:11.825Z,67.10
2018-12-29T11:10:16.916Z,61.10
2018-12-29T11:14:21.982Z,60.33
2018-12-29T11:18:27.029Z,57.30
2018-12-29T11:22:32.225Z,56.87
2018-12-29T11:26:37.308Z,56.70
2018-12-29T11:30:52.202Z,54.50
2018-12-29T11:34:57.225Z,60.97
2018-12-29T11:39:02.292Z,57.00
2018-12-29T11:43:07.363Z,58.73
2018-12-29T11:47:12.418Z,52.67
2018-12-29T11:51:17.486Z,53.77
2018-12-29T11:55:22.858Z,50.13
2018-12-29T11:59:28.206Z,52.73
2018-12-29T12:03:33.263Z,52.57
2018-12-29T12:07:38.487Z,56.50
2018-12-29T12:11:44.387Z,52.67
2018-12-29T12:15:49.353Z,50.93
2018-12-29T12:19:54.447Z,49.90
2018-12-29T12:23:59.466Z,57.40
2018-12-29T12:28:04.541Z,53.43
2018-12-29T12:32:09.609Z,52.13
2018-12-29T12:36:14.557Z,50.43
2018-12-29T12:40:19.649Z,51.93
2018-12-29T12:44:24.648Z,51.50
2018-12-29T12:48:29.777Z,52.10
2018-12-29T12:52:35.141Z,54.83
2018-12-29T12:56:40.267Z,75.77
2018-12-29T13:00:45.492Z,63.73
2018-12-29T13:04:50.954Z,53.10
2018-12-29T13:08:56.055Z,51.63
2018-12-29T13:13:01.487Z,46.03
2018-12-29T13:17:06.637Z,47.80
2018-12-29T13:21:11.718Z,52.83
2018-12-29T13:25:16.808Z,49.33
2018-12-29T13:29:21.869Z,52.73
2018-12-29T13:33:26.879Z,48.00
2018-12-29T13:37:32.837Z,43.45
2018-12-29T13:45:54.861Z,38.57
2018-12-29T13:49:59.951Z,41.90
2018-12-29T13:54:05.083Z,49.07
2018-12-29T13:58:10.125Z,44.87
2018-12-29T14:02:15.314Z,42.03
2018-12-29T14:06:20.513Z,45.47
2018-12-29T14:10:25.766Z,39.40
2018-12-29T14:14:30.890Z,42.63
2018-12-29T14:18:35.998Z,40.07
2018-12-29T14:22:41.472Z,41.17
2018-12-29T14:26:46.589Z,37.13
2018-12-29T14:30:51.669Z,38.40
2018-12-29T14:34:56.770Z,38.17
2018-12-29T14:39:01.817Z,38.77
2018-12-29T14:43:06.802Z,42.53
2018-12-29T14:47:12.205Z,35.30
2018-12-29T14:51:17.278Z,34.47
2018-12-29T14:55:22.650Z,38.83
2018-12-29T14:59:27.841Z,34.50
2018-12-29T15:03:32.901Z,39.60
2018-12-29T15:07:37.983Z,34.33
2018-12-29T15:11:43.065Z,34.50
2018-12-29T15:15:48.061Z,34.03
2018-12-29T15:19:53.353Z,46.83
2018-12-29T15:23:58.354Z,45.23
2018-12-29T15:28:03.406Z,43.37
2018-12-29T15:32:15.594Z,43.67
2018-12-29T15:36:20.708Z,45.90
2018-12-29T15:40:25.775Z,46.50
2018-12-29T15:44:30.865Z,47.50
2018-12-29T15:48:36.245Z,45.10
2018-12-29T15:52:41.301Z,47.53
2018-12-29T15:56:46.314Z,46.33
2018-12-29T16:00:51.395Z,48.67
2018-12-29T16:04:56.506Z,53.67
2018-12-29T16:09:01.589Z,55.40
2018-12-29T16:13:08.500Z,57.27
2018-12-29T16:17:13.426Z,57.03
2018-12-29T16:21:30.663Z,54.97
2018-12-29T16:25:35.786Z,53.23
2018-12-29T16:29:40.775Z,64.53
2018-12-29T16:33:45.731Z,70.73
2018-12-29T16:37:57.969Z,67.07
2018-12-29T16:42:03.029Z,61.57
2018-12-29T16:46:08.005Z,64.80
2018-12-29T16:50:13.162Z,61.10
2018-12-29T16:54:18.152Z,52.37
2018-12-29T16:58:23.161Z,57.90
2018-12-29T17:02:28.789Z,60.93
2018-12-29T17:06:33.796Z,57.30
2018-12-29T17:10:38.785Z,52.90
2018-12-29T17:19:00.886Z,51.17
2018-12-29T17:23:06.002Z,51.67
2018-12-29T17:27:11.286Z,53.77
2018-12-29T17:31:16.322Z,56.47
2018-12-29T17:40:05.926Z,48.20
2018-12-29T17:44:10.954Z,50.90
2018-12-29T17:48:16.057Z,49.23
2018-12-29T17:52:21.178Z,52.07
2018-12-29T17:56:26.240Z,55.67
2018-12-29T18:00:31.417Z,55.90
2018-12-29T18:04:36.798Z,63.83
2018-12-29T18:08:41.971Z,69.63
2018-12-29T18:17:38.439Z,81.80
2018-12-29T18:21:43.471Z,76.60
2018-12-29T18:25:48.529Z,81.97
2018-12-29T18:30:12.983Z,85.53
2018-12-29T18:34:18.010Z,80.43
2018-12-29T18:43:07.181Z,104.20
2018-12-29T18:47:12.645Z,106.60
2018-12-29T18:51:17.753Z,108.63
2018-12-29T18:55:30.113Z,109.37
2018-12-29T18:59:35.110Z,113.37
2018-12-29T19:03:40.235Z,119.20
2018-12-29T19:07:57.120Z,114.30
2018-12-29T19:12:02.213Z,117.97
2018-12-29T19:16:07.554Z,110.57
2018-12-29T19:29:26.348Z,123.83
2018-12-29T19:33:31.595Z,120.80
2018-12-29T19:37:58.125Z,112.07
2018-12-29T19:42:03.196Z,102.43
2018-12-29T19:46:08.580Z,95.93
2018-12-29T19:50:13.617Z,97.70
2018-12-29T19:54:18.689Z,103.50
2018-12-29T19:58:23.751Z,106.97
2018-12-29T20:02:28.785Z,102.30
2018-12-29T20:06:34.053Z,97.93
2018-12-29T20:10:39.051Z,97.03
2018-12-29T20:14:56.019Z,96.77
2018-12-29T20:19:01.021Z,98.53
2018-12-29T20:23:06.155Z,88.87
2018-12-29T20:27:11.411Z,86.60
2018-12-29T20:31:16.424Z,78.73
2018-12-29T20:35:21.611Z,84.63
2018-12-29T20:43:45.413Z,74.17
2018-12-29T20:47:52.236Z,77.27
2018-12-29T20:51:57.191Z,70.07
2018-12-29T20:56:02.302Z,73.27
2018-12-29T21:00:09.057Z,65.67
2018-12-29T21:04:14.045Z,60.03
2018-12-29T21:08:19.030Z,53.27
2018-12-29T21:12:24.095Z,49.33
2018-12-29T21:16:29.103Z,51.27
2018-12-29T21:20:34.092Z,46.23
2018-12-29T21:24:39.193Z,40.13
2018-12-29T21:28:44.382Z,48.90
2018-12-29T21:32:49.785Z,49.20
2018-12-29T21:36:54.834Z,42.67
2018-12-29T21:40:59.931Z,35.25
2018-12-29T21:45:05.155Z,16.53
2018-12-29T21:49:11.206Z,21.87
2018-12-29T21:53:16.347Z,20.10
2018-12-29T21:57:21.357Z,15.20
2018-12-29T22:01:26.499Z,14.87
2018-12-29T22:05:32.294Z,16.93
2018-12-29T22:09:37.369Z,17.70
2018-12-29T22:13:42.312Z,18.57
2018-12-29T22:17:47.324Z,17.33
2018-12-29T22:21:52.420Z,15.77
2018-12-29T22:25:57.501Z,15.17
2018-12-29T22:30:02.628Z,18.50
2018-12-29T22:34:07.748Z,15.47
2018-12-29T22:38:12.800Z,19.33
2018-12-29T22:42:17.809Z,20.33
2018-12-29T22:46:22.919Z,17.93
2018-12-29T22:50:28.003Z,24.77
2018-12-29T22:54:33.056Z,23.37
2018-12-29T22:58:45.372Z,17.87
2018-12-29T23:02:50.404Z,17.53
2018-12-29T23:07:16.489Z,15.00
2018-12-29T23:11:21.553Z,14.50
2018-12-29T23:15:26.615Z,18.40
2018-12-29T23:19:31.671Z,17.13
2018-12-29T23:23:48.529Z,19.13
2018-12-29T23:27:53.581Z,19.63
2018-12-29T23:31:58.580Z,21.17
2018-12-29T23:36:47.907Z,20.07
2018-12-29T23:40:53.200Z,17.53
2018-12-29T23:44:58.441Z,18.53
2018-12-29T23:58:34.963Z,21.47
